KDFW

Dallas-Fort Worth International Airport

Dallas-Fort Worth, Texas, USA
METAR KDFW 151853Z 27007KT 10SM FEW180 BKN250 22/09 A2966 RMK AO2 SLP038 T02170094
Observed Flight Rules
Feb-15 @ 18:53 UTC (13 minutes ago) Visual Flight Rules
Wind Visibility Clouds
270° at 7 knots 10 miles
  • Few at 18,000' AGL
  • Broken at 25,000' AGL
Temperatures Readings
Current 22°C / 72°F
Dewpoint 9°C / 48°F
Humidity 44%
Altimeter 29.66" Hg
Pressure 1003.8 hPa
Elevation 174
METAR KDFW 151853Z 27007KT 10SM FEW180 BKN250 22/09 A2966 RMK AO2 SLP038 T02170094
Observed Flight Rules
Feb-15 @ 18:53 UTC
(13 minutes ago)
VFR
Wind Visibility
270° at 7 knots 10 miles
Clouds
  • Few at 18,000' AGL
  • Broken at 25,000' AGL
Temperature Dewpoint
22°C / 72°F 9°C / 48°F
Humidity Altimeter Pressure
44% 29.66" Hg 1003.8 hPa